Time;durP1;ratioP1;P1;durP2;ratioP2;P2;SDS_P1;SDS_P2;PMS_P1;PMS_P2;Temp;Humidity;BMP_temperature;BMP_pressure;BME280_temperature;BME280_humidity;BME280_pressure;Samples;Min_cycle;Max_cycle;Signal;HPM_P1;HPM_P2
2021/03/16 00:01:05;;;;;;;;;;;;;;;2.94;62.86;99410.41;147916;1147;104450;-82
2021/03/16 00:04:26;;;;;;;106.97;45.08;;;;;;;2.79;61.47;99411.66;147587;1146;104558;-83
2021/03/16 00:07:54;;;;;;;98.97;43.95;;;;;;;2.75;61.71;99414.56;147784;1147;104577;-80
2021/03/16 00:10:57;;;;;;;92.55;41.70;;;;;;;2.81;62.14;99412.37;147784;1147;104541;-80
2021/03/16 00:14:01;;;;;;;88.03;40.65;;;;;;;2.87;61.56;99414.53;147918;1148;104521;-80
2021/03/16 00:17:05;;;;;;;85.37;41.70;;;;;;;2.91;62.29;99415.95;147912;1147;104535;-81
2021/03/16 00:20:10;;;;;;;83.97;41.28;;;;;;;2.97;62.21;99412.81;147623;1147;104439;-84
2021/03/16 00:23:14;;;;;;;91.20;42.83;;;;;;;3.01;61.62;99401.05;147856;1147;104464;-83
2021/03/16 00:26:17;;;;;;;90.32;43.90;;;;;;;3.02;61.93;99400.10;147695;1147;104543;-80
2021/03/16 00:29:20;;;;;;;110.72;50.83;;;;;;;3.05;61.99;99404.27;147547;1147;104452;-80
2021/03/16 00:32:23;;;;;;;124.03;55.20;;;;;;;3.06;62.47;99401.52;147822;1146;104545;-81
2021/03/16 00:35:26;;;;;;;91.13;43.13;;;;;;;3.04;62.72;99408.72;147648;1147;104489;-76
2021/03/16 00:38:30;;;;;;;84.90;40.28;;;;;;;3.04;63.25;99402.59;147777;1146;104470;-80
2021/03/16 00:41:33;;;;;;;103.95;47.15;;;;;;;3.07;62.45;99407.63;147844;1147;104492;-80
2021/03/16 00:44:36;;;;;;;83.85;40.17;;;;;;;3.09;62.93;99403.88;147913;1147;104962;-80
2021/03/16 00:47:40;;;;;;;71.47;36.73;;;;;;;3.11;62.66;99398.49;147895;1147;104466;-78
2021/03/16 00:50:43;;;;;;;72.53;36.75;;;;;;;3.14;61.93;99404.35;147799;1147;104534;-79
2021/03/16 00:53:46;;;;;;;74.67;35.73;;;;;;;3.13;62.84;99399.20;147736;1147;104458;-82
2021/03/16 00:56:50;;;;;;;58.23;28.12;;;;;;;3.13;62.63;99394.76;147847;1148;104596;-80
2021/03/16 00:59:53;;;;;;;79.92;35.68;;;;;;;3.18;62.69;99394.40;147935;1147;104474;-80
2021/03/16 01:02:56;;;;;;;64.10;33.02;;;;;;;3.25;62.28;99389.44;147737;1146;104571;-79
2021/03/16 01:06:00;;;;;;;130.63;48.63;;;;;;;3.33;63.02;99397.56;147544;1147;104577;-79
2021/03/16 01:09:04;;;;;;;83.33;40.47;;;;;;;3.31;63.11;99399.47;147606;1147;104441;-80
2021/03/16 01:12:09;;;;;;;73.77;35.90;;;;;;;3.08;62.01;99399.59;147560;1146;104550;-79
2021/03/16 01:15:16;;;;;;;76.10;36.53;;;;;;;3.00;62.66;99391.45;147453;1148;104541;-83
2021/03/16 01:18:19;;;;;;;133.85;52.17;;;;;;;3.07;62.26;99392.64;147564;1147;104546;-81
2021/03/16 01:21:22;;;;;;;133.33;53.37;;;;;;;3.13;62.51;99397.39;147377;1148;104471;-81
2021/03/16 01:24:25;;;;;;;136.30;56.92;;;;;;;3.17;62.41;99390.07;147747;1147;104549;-82
2021/03/16 01:27:28;;;;;;;202.25;73.90;;;;;;;3.17;63.76;99383.97;147718;1147;104586;-80
2021/03/16 01:30:32;;;;;;;218.88;75.87;;;;;;;3.18;63.41;99389.13;147635;1146;104537;-78
2021/03/16 01:33:35;;;;;;;105.75;45.65;;;;;;;3.20;63.52;99386.37;147646;1147;104556;-79
2021/03/16 01:36:38;;;;;;;83.60;38.57;;;;;;;3.20;63.23;99386.37;147877;1146;104535;-79
2021/03/16 01:39:41;;;;;;;78.42;37.20;;;;;;;3.19;62.96;99395.22;147871;1148;104483;-78
2021/03/16 01:42:45;;;;;;;77.15;36.20;;;;;;;3.17;62.56;99391.88;147722;1147;104569;-76
2021/03/16 01:45:50;;;;;;;240.72;77.08;;;;;;;3.17;62.60;99405.06;147517;1147;104535;-82
2021/03/16 01:48:54;;;;;;;126.55;47.88;;;;;;;3.17;63.76;99405.06;147774;1147;104457;-80
2021/03/16 01:51:58;;;;;;;80.00;37.40;;;;;;;3.15;62.32;99400.73;147779;1147;104454;-81
2021/03/16 01:55:03;;;;;;;75.72;35.33;;;;;;;3.15;63.68;99402.55;147830;1147;104543;-79
2021/03/16 01:58:06;;;;;;;72.15;36.23;;;;;;;3.15;63.34;99406.01;147691;1147;104556;-79
2021/03/16 02:01:28;;;;;;;64.00;32.80;;;;;;;3.18;63.29;99410.22;147817;1147;104951;-79
2021/03/16 02:04:49;;;;;;;;;;;;;;;3.20;63.41;99412.73;147761;1146;104462;-81
2021/03/16 02:08:19;;;;;;;59.70;29.95;;;;;;;3.22;62.49;99410.80;147889;1147;104469;-81
2021/03/16 02:11:48;;;;;;;63.85;33.65;;;;;;;3.21;62.56;99403.84;147853;1147;104489;-83
2021/03/16 02:15:15;;;;;;;61.83;32.70;;;;;;;3.17;62.45;99403.25;147880;1146;104542;-78
2021/03/16 02:18:41;;;;;;;125.83;50.83;;;;;;;3.20;62.54;99408.28;147914;1146;104514;-82
2021/03/16 02:22:03;;;;;;;64.65;33.10;;;;;;;3.29;63.74;99404.03;147896;1147;104461;-79
2021/03/16 02:25:50;;;;;;;57.62;29.20;;;;;;;3.37;63.44;99414.80;147370;1147;104582;-79
2021/03/16 02:29:18;;;;;;;61.97;31.17;;;;;;;3.42;63.91;99402.05;147846;1147;104466;-82
2021/03/16 02:32:43;;;;;;;67.70;33.48;;;;;;;3.41;62.92;99403.03;147724;1147;104547;-80
2021/03/16 02:36:05;;;;;;;105.78;46.90;;;;;;;3.42;62.70;99409.13;147526;1147;104553;-82
2021/03/16 02:39:28;;;;;;;89.87;44.20;;;;;;;3.32;62.75;99414.34;147695;1147;104449;-78
2021/03/16 02:42:50;;;;;;;100.30;47.30;;;;;;;3.29;63.12;99419.85;147710;1147;104514;-82
2021/03/16 02:46:14;;;;;;;72.62;35.75;;;;;;;3.27;62.78;99419.14;148047;1147;104578;-79
2021/03/16 02:49:39;;;;;;;74.22;36.75;;;;;;;3.21;63.38;99414.39;147878;1147;104729;-83
2021/03/16 02:53:01;;;;;;;70.55;33.48;;;;;;;3.10;63.30;99421.39;147941;1147;105109;-79
2021/03/16 02:56:25;;;;;;;67.50;34.38;;;;;;;3.08;63.63;99420.68;147655;1147;104893;-82
2021/03/16 02:59:50;;;;;;;70.03;34.10;;;;;;;3.07;63.97;99418.99;147698;1147;104494;-80
2021/03/16 03:03:14;;;;;;;66.75;34.55;;;;;;;3.04;64.21;99423.67;147822;1147;104447;-81
2021/03/16 03:06:38;;;;;;;58.35;32.03;;;;;;;3.01;62.93;99429.22;147751;1147;104544;-82
2021/03/16 03:10:00;;;;;;;63.40;30.40;;;;;;;2.96;64.29;99426.94;147905;1148;104504;-80
2021/03/16 03:13:21;;;;;;;;;;;;;;;2.92;64.20;99436.88;147789;1146;104506;-80
2021/03/16 03:16:42;;;;;;;59.85;29.40;;;;;;;2.93;63.62;99446.47;147764;1147;104534;-82
2021/03/16 03:20:05;;;;;;;;;;;;;;;2.93;64.44;99445.65;147619;1147;104522;-85
2021/03/16 03:23:33;;;;;;;61.65;29.45;;;;;;;2.91;63.60;99450.20;147652;1147;104560;-85
2021/03/16 03:27:01;;;;;;;67.12;33.10;;;;;;;2.87;63.12;99446.15;147569;1147;105017;-83
2021/03/16 03:30:25;;;;;;;68.07;34.15;;;;;;;2.86;64.51;99447.09;147640;1147;104403;-85
2021/03/16 03:33:49;;;;;;;69.35;34.75;;;;;;;2.92;63.59;99452.69;147413;1147;104495;-84
2021/03/16 03:37:12;;;;;;;66.60;29.92;;;;;;;2.99;63.55;99452.22;147588;1147;104455;-85
2021/03/16 03:40:34;;;;;;;68.67;33.80;;;;;;;3.01;63.75;99448.48;147772;1147;104640;-80
2021/03/16 03:43:57;;;;;;;70.33;35.23;;;;;;;3.10;64.37;99450.38;147873;1147;104437;-84
2021/03/16 03:47:21;;;;;;;59.83;29.10;;;;;;;3.23;63.97;99449.36;147826;1147;104605;-82
2021/03/16 03:50:44;;;;;;;63.85;32.80;;;;;;;3.36;64.32;99443.93;147652;1147;104544;-78
2021/03/16 03:54:07;;;;;;;67.37;34.50;;;;;;;3.38;63.63;99450.73;147854;1147;104540;-79
2021/03/16 03:57:30;;;;;;;74.35;36.70;;;;;;;3.43;63.63;99451.20;147780;1147;104908;-80
2021/03/16 04:00:52;;;;;;;75.70;36.38;;;;;;;3.47;64.43;99446.52;147804;1147;104594;-83
2021/03/16 04:04:14;;;;;;;67.40;34.55;;;;;;;3.50;64.35;99455.02;147856;1148;104604;-78
2021/03/16 04:07:37;;;;;;;66.07;34.67;;;;;;;3.47;64.61;99457.07;147405;1146;104486;-79
2021/03/16 04:11:01;;;;;;;70.22;34.48;;;;;;;3.44;64.87;99450.23;147731;1147;104490;-82
2021/03/16 04:14:23;;;;;;;69.97;35.93;;;;;;;3.42;64.53;99456.60;147749;1147;104646;-78
2021/03/16 04:17:45;;;;;;;;;;;;;;;3.38;64.55;99466.56;147635;1146;104879;-79
2021/03/16 04:21:08;;;;;;;62.48;32.23;;;;;;;3.37;64.26;99467.55;147537;1147;104590;-78
2021/03/16 04:24:30;;;;;;;73.70;37.80;;;;;;;3.37;63.90;99464.91;147735;1147;104550;-78
2021/03/16 04:27:52;;;;;;;74.92;36.95;;;;;;;3.40;63.65;99464.63;147764;1147;104860;-78
2021/03/16 04:31:13;;;;;;;;;;;;;;;3.37;64.26;99474.59;147925;1147;104476;-79
2021/03/16 04:34:35;;;;;;;89.28;44.33;;;;;;;3.34;64.57;99473.05;147806;1148;104472;-79
2021/03/16 04:37:57;;;;;;;93.12;44.60;;;;;;;3.34;64.36;99476.52;147830;1147;104470;-78
2021/03/16 04:41:18;;;;;;;;;;;;;;;3.37;64.65;99472.81;147793;1146;104492;-81
2021/03/16 04:44:39;;;;;;;103.65;46.95;;;;;;;3.44;65.25;99481.88;147668;1147;104550;-83
2021/03/16 04:48:02;;;;;;;113.65;51.40;;;;;;;3.50;65.44;99468.20;147844;1146;104649;-79
2021/03/16 04:51:24;;;;;;;109.50;49.60;;;;;;;3.60;65.07;99468.27;147793;1148;104537;-80
2021/03/16 04:54:46;;;;;;;120.60;55.48;;;;;;;3.69;64.62;99461.38;147780;1147;104445;-80
2021/03/16 04:58:08;;;;;;;121.67;55.95;;;;;;;3.71;65.00;99464.72;147288;1147;104668;-79
2021/03/16 05:01:31;;;;;;;93.70;45.65;;;;;;;3.72;65.11;99469.05;147772;1147;104440;-80
2021/03/16 05:04:53;;;;;;;182.32;78.85;;;;;;;3.76;64.70;99467.82;147708;1146;104720;-78
2021/03/16 05:08:16;;;;;;;145.32;65.70;;;;;;;3.80;64.66;99474.51;147688;1147;104555;-77
2021/03/16 05:11:38;;;;;;;168.27;70.47;;;;;;;3.82;64.52;99472.58;147785;1147;104480;-80
2021/03/16 05:15:00;;;;;;;144.80;62.75;;;;;;;3.79;64.49;99472.85;147705;1145;104449;-80
2021/03/16 05:18:21;;;;;;;;;;;;;;;3.77;64.84;99480.03;147668;1148;104549;-78
2021/03/16 05:21:42;;;;;;;90.22;43.50;;;;;;;3.75;65.36;99481.97;147814;1148;104580;-82
2021/03/16 05:25:06;;;;;;;;;;;;;;;3.74;64.92;99480.31;147770;1147;104461;-79
2021/03/16 05:28:28;;;;;;;87.40;40.73;;;;;;;3.73;66.13;99483.89;147616;1147;104547;-79
2021/03/16 05:31:49;;;;;;;;;;;;;;;3.74;66.08;99490.86;147309;1147;104473;-77
2021/03/16 05:35:13;;;;;;;77.70;38.10;;;;;;;3.74;65.72;99502.24;147210;1146;104545;-74
2021/03/16 05:38:35;;;;;;;79.27;39.27;;;;;;;3.74;65.13;99496.97;147657;1146;104474;-75
2021/03/16 05:41:58;;;;;;;75.62;39.08;;;;;;;3.74;65.02;99502.24;147745;1147;104903;-74
2021/03/16 05:45:19;;;;;;;76.53;37.50;;;;;;;3.76;65.81;99502.12;148224;1147;104461;-76
2021/03/16 05:48:47;;;;;;;70.78;34.67;;;;;;;3.81;65.39;99501.72;149197;1147;104486;-75
2021/03/16 05:52:12;;;;;;;63.30;32.25;;;;;;;3.86;65.04;99502.19;147446;1147;104529;-78
2021/03/16 05:55:34;;;;;;;62.45;33.95;;;;;;;3.94;65.56;99507.65;147647;1148;104553;-78
2021/03/16 05:58:56;;;;;;;62.50;33.47;;;;;;;4.02;65.87;99507.86;147886;1147;104509;-76
2021/03/16 06:02:18;;;;;;;74.62;37.17;;;;;;;4.08;65.49;99514.40;147685;1147;104556;-80
2021/03/16 06:05:40;;;;;;;100.55;45.25;;;;;;;4.09;65.76;99510.81;147842;1146;104519;-80
2021/03/16 06:09:02;;;;;;;75.47;37.80;;;;;;;4.14;65.26;99513.91;147836;1147;104543;-80
2021/03/16 06:12:33;;;;;;;67.63;34.97;;;;;;;4.17;65.82;99524.19;147856;1147;104580;-78
2021/03/16 06:15:54;;;;;;;67.12;35.38;;;;;;;4.18;65.62;99523.23;147635;1147;104864;-80
2021/03/16 06:19:27;;;;;;;64.70;35.35;;;;;;;4.19;65.76;99529.34;148058;1146;104486;-80
2021/03/16 06:22:49;;;;;;;67.08;35.98;;;;;;;4.20;65.91;99523.94;147729;1146;104547;-83
2021/03/16 06:26:14;;;;;;;87.10;42.33;;;;;;;4.20;65.57;99528.39;147649;1146;104457;-77
2021/03/16 06:29:46;;;;;;;80.03;40.50;;;;;;;4.24;65.75;99535.91;147818;1147;104548;-77
2021/03/16 06:33:19;;;;;;;84.15;40.85;;;;;;;4.30;65.34;99535.38;147708;1146;104472;-76
2021/03/16 06:36:41;;;;;;;69.55;35.35;;;;;;;4.38;65.73;99544.47;147652;1147;104482;-79
2021/03/16 06:40:04;;;;;;;64.50;33.50;;;;;;;4.49;65.58;99549.67;147707;1146;104506;-77
2021/03/16 06:43:26;;;;;;;57.38;32.23;;;;;;;4.60;65.37;99548.73;147862;1147;104528;-72
2021/03/16 06:46:53;;;;;;;;;;;;;;;4.69;66.10;99556.70;147872;1146;104460;-74
2021/03/16 06:50:15;;;;;;;63.58;33.63;;;;;;;4.82;65.66;99560.94;147718;1147;104563;-76
2021/03/16 06:53:36;;;;;;;;;;;;;;;4.89;65.37;99559.45;147580;1148;104559;-73
2021/03/16 06:57:01;;;;;;;64.97;35.30;;;;;;;4.94;65.58;99559.03;148111;1147;104467;-72
2021/03/16 07:00:24;;;;;;;62.50;34.10;;;;;;;4.98;65.63;99561.27;147876;1147;104547;-73
2021/03/16 07:03:47;;;;;;;72.58;38.23;;;;;;;4.99;66.06;99573.52;147685;1147;104633;-74
2021/03/16 07:07:11;;;;;;;77.12;41.58;;;;;;;4.95;65.61;99568.66;147819;1147;104604;-73
2021/03/16 07:10:34;;;;;;;160.95;81.72;;;;;;;5.04;65.76;99576.62;147897;1147;104550;-75
2021/03/16 07:13:59;;;;;;;145.53;72.17;;;;;;;5.10;66.24;99576.08;147808;1147;104542;-73
2021/03/16 07:17:21;;;;;;;110.17;58.63;;;;;;;5.15;66.31;99585.41;147778;1147;104486;-78
2021/03/16 07:20:44;;;;;;;63.78;35.88;;;;;;;5.20;66.25;99586.67;147733;1146;104672;-74
2021/03/16 07:24:09;;;;;;;58.57;32.97;;;;;;;5.39;66.07;99585.89;147382;1148;104547;-73
2021/03/16 07:27:32;;;;;;;56.53;33.80;;;;;;;5.59;66.15;99578.80;147566;1148;104458;-74
2021/03/16 07:30:54;;;;;;;51.65;29.37;;;;;;;5.74;65.84;99583.70;147641;1147;104467;-73
2021/03/16 07:34:19;;;;;;;49.53;29.47;;;;;;;5.88;65.70;99591.22;147653;1148;104528;-75
2021/03/16 07:37:42;;;;;;;45.38;27.73;;;;;;;5.94;65.71;99603.07;147835;1147;104579;-72
2021/03/16 07:41:05;;;;;;;41.40;25.25;;;;;;;5.99;65.50;99593.77;147865;1145;104513;-75
2021/03/16 07:44:27;;;;;;;40.90;25.35;;;;;;;6.03;65.18;99595.16;147861;1147;104595;-85
2021/03/16 07:47:49;;;;;;;42.05;24.30;;;;;;;6.09;65.31;99599.88;147735;1146;104571;-72
2021/03/16 07:51:14;;;;;;;43.30;25.30;;;;;;;6.15;65.50;99605.61;147814;1147;104470;-77
2021/03/16 07:54:37;;;;;;;49.80;26.02;;;;;;;6.22;65.49;99612.02;147857;1147;104585;-73
2021/03/16 07:58:26;;;;;;;50.90;27.13;;;;;;;6.30;65.49;99612.14;147570;1147;104457;-79
2021/03/16 08:01:49;;;;;;;48.03;25.73;;;;;;;6.43;66.27;99614.51;147691;1147;104809;-73
2021/03/16 08:05:17;;;;;;;42.90;25.00;;;;;;;6.52;65.21;99605.67;147847;1147;104822;-72
2021/03/16 08:08:43;;;;;;;44.67;25.75;;;;;;;6.59;65.40;99611.26;147844;1147;104518;-73
2021/03/16 08:12:16;;;;;;;56.70;32.90;;;;;;;6.66;65.17;99613.19;147527;1147;104625;-71
2021/03/16 08:15:42;;;;;;;48.65;26.55;;;;;;;6.82;65.48;99619.70;147890;1147;104501;-72
2021/03/16 08:19:13;;;;;;;44.58;24.92;;;;;;;6.81;65.88;99616.23;147810;1147;104547;-74
2021/03/16 08:22:34;;;;;;;222.17;122.98;;;;;;;6.86;65.06;99618.44;147788;1146;104566;-72
2021/03/16 08:25:57;;;;;;;93.75;57.58;;;;;;;6.99;65.80;99626.91;147800;1147;104464;-71
2021/03/16 08:29:26;;;;;;;45.13;28.70;;;;;;;7.07;65.50;99627.00;147725;1147;104582;-72
2021/03/16 08:32:50;;;;;;;42.03;27.85;;;;;;;7.12;64.59;99623.07;147833;1147;104541;-73
2021/03/16 08:36:12;;;;;;;33.92;21.30;;;;;;;7.14;64.91;99631.72;147752;1146;104541;-73
2021/03/16 08:39:34;;;;;;;29.23;18.65;;;;;;;7.17;65.51;99628.78;147990;1147;104459;-73
2021/03/16 08:42:55;;;;;;;;;;;;;;;7.15;64.83;99633.41;147863;1146;104468;-73
2021/03/16 08:46:29;;;;;;;26.73;17.12;;;;;;;7.15;64.47;99633.41;147811;1147;104612;-73
2021/03/16 08:49:53;;;;;;;51.07;29.33;;;;;;;7.18;64.92;99625.98;147435;1147;104555;-74
2021/03/16 08:53:16;;;;;;;45.48;28.57;;;;;;;7.18;65.18;99636.60;147906;1148;104549;-73
2021/03/16 08:56:40;;;;;;;33.07;21.20;;;;;;;7.08;64.78;99644.61;147864;1147;104571;-73
2021/03/16 09:00:05;;;;;;;34.83;21.57;;;;;;;6.88;65.30;99651.77;147556;1146;104477;-76
2021/03/16 09:03:31;;;;;;;37.55;24.20;;;;;;;6.82;64.87;99644.40;147696;1147;104540;-73
2021/03/16 09:06:54;;;;;;;31.17;21.37;;;;;;;6.80;65.38;99651.66;147986;1147;104538;-72
2021/03/16 09:10:19;;;;;;;35.60;23.27;;;;;;;6.77;64.68;99653.77;147954;1147;104911;-73
2021/03/16 09:13:42;;;;;;;31.90;22.22;;;;;;;6.78;65.33;99650.14;147813;1146;104531;-75
2021/03/16 09:17:05;;;;;;;37.90;21.47;;;;;;;6.81;64.29;99655.14;147889;1147;105062;-74
2021/03/16 09:20:29;;;;;;;38.83;24.23;;;;;;;6.97;64.97;99652.73;147787;1147;104529;-75
2021/03/16 09:23:51;;;;;;;39.58;24.05;;;;;;;7.19;64.51;99653.34;147799;1147;104565;-77
2021/03/16 09:27:15;;;;;;;35.63;23.15;;;;;;;7.37;64.29;99656.91;147619;1147;104573;-74
2021/03/16 09:30:40;;;;;;;34.45;23.25;;;;;;;7.54;64.68;99655.27;147567;1147;104489;-74
2021/03/16 09:34:01;;;;;;;35.48;23.10;;;;;;;7.63;64.89;99661.52;148401;1147;104460;-73
2021/03/16 09:37:23;;;;;;;30.83;21.07;;;;;;;7.65;64.25;99662.20;147770;1146;104537;-74
2021/03/16 09:40:50;;;;;;;34.58;22.45;;;;;;;7.66;65.23;99663.88;147597;1148;104536;-79
2021/03/16 09:44:04;;;;;;;32.35;21.05;;;;;;;7.75;64.15;99662.97;147530;1148;104548;-81
2021/03/16 09:47:08;;;;;;;31.00;20.77;;;;;;;7.90;64.32;99659.81;147831;1146;104528;-73
2021/03/16 09:50:15;;;;;;;27.55;19.90;;;;;;;8.15;64.07;99664.37;147820;1146;104540;-73
2021/03/16 09:53:19;;;;;;;23.25;16.15;;;;;;;8.37;63.32;99657.77;147853;1147;104470;-83
2021/03/16 09:56:28;;;;;;;67.42;46.77;;;;;;;8.52;63.66;99654.58;147504;1146;104841;-77
2021/03/16 09:59:36;;;;;;;58.98;39.18;;;;;;;8.83;63.77;99653.15;147769;1147;104459;-77
2021/03/16 10:02:40;;;;;;;29.87;20.53;;;;;;;9.17;63.19;99656.81;147546;1147;104450;-71
2021/03/16 10:05:43;;;;;;;27.58;18.73;;;;;;;9.46;63.28;99653.78;147455;1146;104540;-74
2021/03/16 10:08:46;;;;;;;34.20;23.95;;;;;;;9.63;62.99;99650.17;147576;1148;104548;-74
2021/03/16 10:11:50;;;;;;;26.45;19.52;;;;;;;9.74;62.38;99654.38;147356;1147;104446;-72
2021/03/16 10:14:54;;;;;;;25.00;17.10;;;;;;;9.74;62.19;99654.38;147454;1147;104466;-77
2021/03/16 10:17:58;;;;;;;36.08;21.77;;;;;;;9.67;62.60;99658.68;147907;1147;104550;-81
2021/03/16 10:21:02;;;;;;;29.37;19.75;;;;;;;9.66;62.15;99665.02;147627;1147;104534;-74
2021/03/16 10:24:06;;;;;;;19.03;13.30;;;;;;;9.56;61.51;99667.79;147693;1146;104546;-74
2021/03/16 10:27:09;;;;;;;15.27;11.63;;;;;;;9.36;60.62;99669.88;147768;1147;104519;-73
2021/03/16 10:30:14;;;;;;;15.80;12.00;;;;;;;8.87;60.69;99669.61;147895;1147;104489;-75
2021/03/16 10:33:17;;;;;;;17.10;11.57;;;;;;;8.64;61.38;99675.45;147565;1147;104463;-72
2021/03/16 10:36:21;;;;;;;15.70;10.87;;;;;;;8.50;61.49;99665.36;147726;1147;104548;-75
2021/03/16 10:39:25;;;;;;;15.72;11.00;;;;;;;8.37;61.52;99672.86;147895;1147;104729;-74
2021/03/16 10:42:29;;;;;;;15.28;10.60;;;;;;;8.26;59.71;99673.95;147788;1147;104610;-74
2021/03/16 10:45:32;;;;;;;13.70;9.95;;;;;;;8.09;60.17;99672.95;147746;1147;104475;-71
2021/03/16 10:48:35;;;;;;;14.93;10.20;;;;;;;8.02;60.19;99671.88;147733;1148;104526;-73
2021/03/16 10:51:38;;;;;;;14.53;9.85;;;;;;;7.85;60.77;99676.18;147481;1147;104496;-72
2021/03/16 10:54:41;;;;;;;11.93;8.73;;;;;;;7.80;61.73;99671.33;147529;1147;104454;-73
2021/03/16 10:57:45;;;;;;;13.18;9.65;;;;;;;7.87;61.60;99687.48;147293;1147;104444;-71
2021/03/16 11:00:48;;;;;;;15.43;10.28;;;;;;;7.85;60.80;99686.81;147706;1146;104546;-70
2021/03/16 11:03:51;;;;;;;16.30;10.82;;;;;;;7.80;60.79;99684.61;147776;1146;104444;-77
2021/03/16 11:06:54;;;;;;;19.00;11.27;;;;;;;7.76;60.83;99680.59;147816;1147;104547;-72
2021/03/16 11:09:57;;;;;;;13.38;9.43;;;;;;;7.80;61.45;99681.95;147699;1147;104623;-75
2021/03/16 11:13:00;;;;;;;14.38;10.03;;;;;;;7.86;61.04;99686.66;147814;1147;104472;-76
2021/03/16 11:16:04;;;;;;;18.07;11.03;;;;;;;7.92;61.22;99679.92;147696;1147;104492;-76
2021/03/16 11:19:07;;;;;;;14.58;10.15;;;;;;;7.95;60.05;99684.95;147763;1147;104447;-77
2021/03/16 11:22:10;;;;;;;13.55;9.25;;;;;;;7.95;61.01;99676.97;147781;1147;104541;-73
2021/03/16 11:25:15;;;;;;;13.43;9.63;;;;;;;7.95;60.94;99678.77;147733;1147;104657;-75
2021/03/16 11:28:18;;;;;;;13.65;10.28;;;;;;;7.98;60.96;99678.48;147785;1147;104490;-74
2021/03/16 11:31:22;;;;;;;11.95;9.25;;;;;;;8.02;59.91;99671.88;147378;1147;104456;-75
2021/03/16 11:34:42;;;;;;;;;;;;;;;8.10;61.09;99669.30;147787;1147;104519;-75
2021/03/16 11:38:04;;;;;;;16.70;10.18;;;;;;;8.18;59.84;99669.39;147344;1148;104473;-74
2021/03/16 11:41:26;;;;;;;15.13;10.15;;;;;;;8.21;59.85;99669.07;147688;1147;104636;-74
2021/03/16 11:44:47;;;;;;;;;;;;;;;8.29;60.02;99670.97;147774;1146;104527;-74
2021/03/16 11:48:10;;;;;;;14.20;10.20;;;;;;;8.37;59.48;99668.40;147602;1148;104463;-75
2021/03/16 11:51:32;;;;;;;42.30;26.90;;;;;;;8.45;60.31;99665.00;147785;1147;104494;-74
2021/03/16 11:54:54;;;;;;;22.67;15.08;;;;;;;8.59;59.21;99667.09;147482;1147;104473;-74
2021/03/16 11:58:15;;;;;;;;;;;;;;;8.71;58.81;99661.53;147575;1147;104537;-75
2021/03/16 12:01:37;;;;;;;14.40;10.78;;;;;;;8.78;59.04;99660.75;147801;1148;104589;-77
2021/03/16 12:04:59;;;;;;;18.48;12.50;;;;;;;8.95;59.28;99659.03;147764;1147;104435;-73
2021/03/16 12:08:22;;;;;;;18.85;12.15;;;;;;;9.09;58.06;99662.11;147755;1147;104467;-74
2021/03/16 12:11:44;;;;;;;17.90;11.83;;;;;;;9.07;59.23;99659.59;147744;1147;104518;-76
2021/03/16 12:15:09;;;;;;;15.80;11.15;;;;;;;9.17;58.95;99664.80;147733;1147;104450;-74
2021/03/16 12:18:30;;;;;;;17.23;11.22;;;;;;;9.21;59.14;99653.67;147901;1148;104957;-75
2021/03/16 12:21:53;;;;;;;17.03;10.83;;;;;;;9.28;58.65;99656.55;147748;1148;104472;-74
2021/03/16 12:25:15;;;;;;;16.05;10.98;;;;;;;9.35;58.79;99654.92;147898;1147;104454;-76
2021/03/16 12:28:37;;;;;;;15.43;11.18;;;;;;;9.38;57.77;99657.24;147943;1147;104468;-77
2021/03/16 12:32:00;;;;;;;15.08;11.15;;;;;;;9.34;57.73;99661.22;147711;1147;104466;-74
2021/03/16 12:35:22;;;;;;;15.58;11.08;;;;;;;9.34;57.61;99655.90;147274;1147;104603;-75
2021/03/16 12:38:44;;;;;;;14.30;10.82;;;;;;;9.36;58.13;99656.57;147639;1147;104463;-74
2021/03/16 12:42:07;;;;;;;14.77;10.77;;;;;;;9.35;57.86;99657.58;147795;1148;104520;-76
2021/03/16 12:45:29;;;;;;;14.15;10.63;;;;;;;9.39;57.59;99653.60;147851;1146;104578;-74
2021/03/16 12:48:50;;;;;;;;;;;;;;;9.51;57.99;99654.14;147803;1147;104429;-73
2021/03/16 12:52:11;;;;;;;14.13;10.45;;;;;;;9.58;58.16;99647.19;147780;1146;104476;-74
2021/03/16 12:55:33;;;;;;;17.62;12.90;;;;;;;9.57;57.40;99656.16;148135;1147;104469;-75
2021/03/16 12:58:55;;;;;;;;;;;;;;;9.59;55.65;99648.01;147480;1146;104462;-74
2021/03/16 13:02:17;;;;;;;17.65;12.70;;;;;;;9.42;56.08;99658.59;147740;1147;104535;-74
2021/03/16 13:05:39;;;;;;;18.53;13.67;;;;;;;9.20;55.18;99657.34;147634;1147;104835;-73
2021/03/16 13:09:00;;;;;;;;;;;;;;;8.96;57.22;99657.20;147567;1147;104577;-76
2021/03/16 13:12:22;;;;;;;18.45;13.83;;;;;;;8.79;56.61;99674.88;147857;1147;104436;-74
2021/03/16 13:15:45;;;;;;;18.95;14.25;;;;;;;8.65;57.23;99666.47;147408;1147;104460;-74
2021/03/16 13:19:08;;;;;;;21.52;13.85;;;;;;;8.53;57.62;99674.88;147632;1148;104546;-75
2021/03/16 13:22:30;;;;;;;15.38;11.97;;;;;;;8.40;56.39;99672.56;147768;1146;104608;-73
2021/03/16 13:25:52;;;;;;;16.40;12.05;;;;;;;8.33;56.55;99677.64;147798;1146;104498;-74
2021/03/16 13:29:13;;;;;;;;;;;;;;;8.40;57.83;99683.20;147839;1147;104576;-75
2021/03/16 13:32:35;;;;;;;14.73;10.63;;;;;;;8.41;57.07;99680.42;147677;1146;104487;-74
2021/03/16 13:35:55;;;;;;;;;;;;;;;8.35;56.16;99688.13;147937;1147;104461;-79
2021/03/16 13:39:17;;;;;;;13.70;10.30;;;;;;;8.30;56.04;99682.45;147711;1145;104591;-74
2021/03/16 13:42:40;;;;;;;14.35;9.83;;;;;;;8.26;56.27;99692.55;147704;1148;104590;-76
2021/03/16 13:46:02;;;;;;;14.40;10.05;;;;;;;8.14;56.92;99689.29;147754;1147;104505;-74
2021/03/16 13:49:24;;;;;;;14.15;10.23;;;;;;;8.05;57.28;99691.02;147675;1146;104953;-73
2021/03/16 13:52:45;;;;;;;;;;;;;;;8.07;57.65;99688.22;147776;1146;104854;-74
2021/03/16 13:56:07;;;;;;;12.60;8.83;;;;;;;8.10;56.92;99697.70;147613;1147;104572;-74
2021/03/16 13:59:29;;;;;;;10.97;8.43;;;;;;;8.06;55.82;99697.16;147868;1147;104543;-76
2021/03/16 14:02:52;;;;;;;12.47;8.83;;;;;;;7.97;57.28;99704.22;147808;1146;104470;-74
2021/03/16 14:06:14;;;;;;;11.37;8.37;;;;;;;7.97;56.66;99703.40;147860;1147;104515;-73
2021/03/16 14:09:35;;;;;;;;;;;;;;;7.96;55.91;99702.54;147872;1146;104503;-74
2021/03/16 14:12:56;;;;;;;10.15;7.85;;;;;;;7.94;56.04;99698.38;147672;1147;104552;-74
2021/03/16 14:16:17;;;;;;;;;;;;;;;8.02;55.68;99706.42;147742;1147;104563;-75
2021/03/16 14:19:39;;;;;;;11.03;8.23;;;;;;;8.04;55.22;99704.45;147627;1147;104662;-71
2021/03/16 14:23:01;;;;;;;12.78;8.95;;;;;;;8.04;55.58;99709.76;147606;1147;104552;-74
2021/03/16 14:26:22;;;;;;;;;;;;;;;8.03;55.78;99708.94;147707;1146;104469;-71
2021/03/16 14:29:44;;;;;;;12.65;8.35;;;;;;;7.99;55.84;99706.73;147682;1148;104469;-73
2021/03/16 14:33:06;;;;;;;11.43;8.43;;;;;;;7.99;55.90;99709.39;147828;1146;104550;-73
2021/03/16 14:36:28;;;;;;;49.43;24.67;;;;;;;7.98;56.13;99702.39;147808;1147;104880;-74
2021/03/16 14:39:50;;;;;;;15.43;10.25;;;;;;;7.96;56.29;99705.20;147781;1146;104565;-74
2021/03/16 14:43:12;;;;;;;13.93;9.10;;;;;;;7.95;56.52;99702.68;147820;1147;104460;-73
2021/03/16 14:46:33;;;;;;;;;;;;;;;8.00;57.22;99703.91;147773;1147;104551;-75
2021/03/16 14:49:54;;;;;;;12.30;8.25;;;;;;;7.95;56.43;99708.85;147784;1148;104579;-74
2021/03/16 14:53:17;;;;;;;11.53;8.08;;;;;;;7.97;57.16;99708.71;147595;1147;104482;-74
2021/03/16 14:56:39;;;;;;;15.58;9.85;;;;;;;7.95;56.79;99719.48;147813;1146;104482;-73
2021/03/16 15:00:02;;;;;;;14.28;9.40;;;;;;;7.93;56.68;99723.25;147907;1145;104447;-73
2021/03/16 15:03:24;;;;;;;12.05;8.08;;;;;;;7.88;55.95;99717.56;147795;1146;104611;-73
2021/03/16 15:06:44;;;;;;;;;;;;;;;7.81;55.98;99717.31;147813;1148;104451;-77
2021/03/16 15:10:08;;;;;;;10.68;6.97;;;;;;;7.73;55.25;99718.05;147745;1147;104454;-74